sensor_id;sensor_type;location;lat;lon;timestamp;P1;durP1;ratioP1;P2;durP2;ratioP2
38379;SDS011;38377;47.418;18.882;2023-05-07T00:00:08;9.43;;;8.25;;
38379;SDS011;38377;47.418;18.882;2023-05-07T00:02:34;9.80;;;8.75;;
38379;SDS011;38377;47.418;18.882;2023-05-07T00:05:01;10.15;;;9.05;;
38379;SDS011;38377;47.418;18.882;2023-05-07T00:07:27;11.88;;;9.70;;
38379;SDS011;38377;47.418;18.882;2023-05-07T00:09:53;13.25;;;11.85;;
38379;SDS011;38377;47.418;18.882;2023-05-07T00:12:19;16.50;;;12.52;;
38379;SDS011;38377;47.418;18.882;2023-05-07T00:14:44;14.38;;;10.70;;
38379;SDS011;38377;47.418;18.882;2023-05-07T00:17:10;12.77;;;11.05;;
38379;SDS011;38377;47.418;18.882;2023-05-07T00:19:36;10.00;;;8.90;;
38379;SDS011;38377;47.418;18.882;2023-05-07T00:22:01;9.52;;;8.13;;
38379;SDS011;38377;47.418;18.882;2023-05-07T00:24:27;9.32;;;8.07;;
38379;SDS011;38377;47.418;18.882;2023-05-07T00:26:53;10.30;;;7.80;;
38379;SDS011;38377;47.418;18.882;2023-05-07T00:29:18;7.93;;;7.13;;
38379;SDS011;38377;47.418;18.882;2023-05-07T00:31:44;10.60;;;8.43;;
38379;SDS011;38377;47.418;18.882;2023-05-07T00:34:10;9.27;;;7.47;;
38379;SDS011;38377;47.418;18.882;2023-05-07T00:36:35;7.18;;;6.47;;
38379;SDS011;38377;47.418;18.882;2023-05-07T00:39:01;6.55;;;5.95;;
38379;SDS011;38377;47.418;18.882;2023-05-07T00:41:29;6.47;;;5.60;;
38379;SDS011;38377;47.418;18.882;2023-05-07T00:43:56;10.60;;;8.57;;
38379;SDS011;38377;47.418;18.882;2023-05-07T00:46:21;10.00;;;7.82;;
38379;SDS011;38377;47.418;18.882;2023-05-07T00:48:49;9.18;;;7.95;;
38379;SDS011;38377;47.418;18.882;2023-05-07T00:51:16;8.63;;;7.70;;
38379;SDS011;38377;47.418;18.882;2023-05-07T00:53:43;8.20;;;7.25;;
38379;SDS011;38377;47.418;18.882;2023-05-07T00:56:09;8.70;;;7.05;;
38379;SDS011;38377;47.418;18.882;2023-05-07T00:58:36;7.90;;;7.00;;
38379;SDS011;38377;47.418;18.882;2023-05-07T01:01:02;8.55;;;6.57;;
38379;SDS011;38377;47.418;18.882;2023-05-07T01:03:28;8.20;;;6.88;;
38379;SDS011;38377;47.418;18.882;2023-05-07T01:05:53;7.57;;;6.78;;
38379;SDS011;38377;47.418;18.882;2023-05-07T01:08:22;10.18;;;6.85;;
38379;SDS011;38377;47.418;18.882;2023-05-07T01:10:50;8.25;;;7.35;;
38379;SDS011;38377;47.418;18.882;2023-05-07T01:13:16;8.48;;;7.53;;
38379;SDS011;38377;47.418;18.882;2023-05-07T01:15:43;9.50;;;8.45;;
38379;SDS011;38377;47.418;18.882;2023-05-07T01:18:09;9.30;;;8.10;;
38379;SDS011;38377;47.418;18.882;2023-05-07T01:20:35;8.50;;;7.28;;
38379;SDS011;38377;47.418;18.882;2023-05-07T01:23:01;7.82;;;6.88;;
38379;SDS011;38377;47.418;18.882;2023-05-07T01:25:28;9.18;;;7.72;;
38379;SDS011;38377;47.418;18.882;2023-05-07T01:27:54;7.65;;;6.53;;
38379;SDS011;38377;47.418;18.882;2023-05-07T01:30:20;8.50;;;7.38;;
38379;SDS011;38377;47.418;18.882;2023-05-07T01:32:56;8.60;;;7.32;;
38379;SDS011;38377;47.418;18.882;2023-05-07T01:35:29;9.52;;;8.20;;
38379;SDS011;38377;47.418;18.882;2023-05-07T01:38:00;8.00;;;7.20;;
38379;SDS011;38377;47.418;18.882;2023-05-07T01:40:29;9.48;;;7.72;;
38379;SDS011;38377;47.418;18.882;2023-05-07T01:42:55;10.20;;;8.35;;
38379;SDS011;38377;47.418;18.882;2023-05-07T01:45:21;10.63;;;8.63;;
38379;SDS011;38377;47.418;18.882;2023-05-07T01:47:47;9.68;;;8.38;;
38379;SDS011;38377;47.418;18.882;2023-05-07T01:50:14;10.50;;;8.88;;
38379;SDS011;38377;47.418;18.882;2023-05-07T01:52:43;11.20;;;8.85;;
38379;SDS011;38377;47.418;18.882;2023-05-07T01:55:09;10.63;;;8.68;;
38379;SDS011;38377;47.418;18.882;2023-05-07T01:57:34;9.10;;;7.90;;
38379;SDS011;38377;47.418;18.882;2023-05-07T02:00:00;10.40;;;8.65;;
38379;SDS011;38377;47.418;18.882;2023-05-07T02:02:27;10.70;;;9.18;;
38379;SDS011;38377;47.418;18.882;2023-05-07T02:04:53;9.82;;;8.52;;
38379;SDS011;38377;47.418;18.882;2023-05-07T02:07:18;10.25;;;9.13;;
38379;SDS011;38377;47.418;18.882;2023-05-07T02:09:44;10.77;;;9.18;;
38379;SDS011;38377;47.418;18.882;2023-05-07T02:12:10;10.23;;;9.07;;
38379;SDS011;38377;47.418;18.882;2023-05-07T02:14:36;10.63;;;8.85;;
38379;SDS011;38377;47.418;18.882;2023-05-07T02:17:01;11.05;;;8.80;;
38379;SDS011;38377;47.418;18.882;2023-05-07T02:19:27;11.20;;;9.02;;
38379;SDS011;38377;47.418;18.882;2023-05-07T02:21:53;15.68;;;11.10;;
38379;SDS011;38377;47.418;18.882;2023-05-07T02:24:19;13.57;;;10.45;;
38379;SDS011;38377;47.418;18.882;2023-05-07T02:26:45;14.75;;;11.32;;
38379;SDS011;38377;47.418;18.882;2023-05-07T02:29:10;13.85;;;11.75;;
38379;SDS011;38377;47.418;18.882;2023-05-07T02:31:36;14.43;;;11.32;;
38379;SDS011;38377;47.418;18.882;2023-05-07T02:34:02;14.88;;;11.35;;
38379;SDS011;38377;47.418;18.882;2023-05-07T02:36:28;15.27;;;12.52;;
38379;SDS011;38377;47.418;18.882;2023-05-07T02:38:54;16.95;;;12.57;;
38379;SDS011;38377;47.418;18.882;2023-05-07T02:41:20;18.85;;;13.82;;
38379;SDS011;38377;47.418;18.882;2023-05-07T02:43:45;17.13;;;13.38;;
38379;SDS011;38377;47.418;18.882;2023-05-07T02:46:14;18.23;;;13.70;;
38379;SDS011;38377;47.418;18.882;2023-05-07T02:48:40;18.08;;;13.48;;
38379;SDS011;38377;47.418;18.882;2023-05-07T02:51:06;18.50;;;13.68;;
38379;SDS011;38377;47.418;18.882;2023-05-07T02:53:32;17.85;;;13.90;;
38379;SDS011;38377;47.418;18.882;2023-05-07T02:55:59;16.05;;;12.25;;
38379;SDS011;38377;47.418;18.882;2023-05-07T02:58:26;13.60;;;11.48;;
38379;SDS011;38377;47.418;18.882;2023-05-07T03:00:52;12.18;;;10.25;;
38379;SDS011;38377;47.418;18.882;2023-05-07T03:03:19;11.63;;;9.68;;
38379;SDS011;38377;47.418;18.882;2023-05-07T03:05:45;11.32;;;9.68;;
38379;SDS011;38377;47.418;18.882;2023-05-07T03:08:11;11.15;;;9.00;;
38379;SDS011;38377;47.418;18.882;2023-05-07T03:10:37;13.00;;;8.85;;
38379;SDS011;38377;47.418;18.882;2023-05-07T03:13:03;10.27;;;8.57;;
38379;SDS011;38377;47.418;18.882;2023-05-07T03:15:29;9.40;;;8.40;;
38379;SDS011;38377;47.418;18.882;2023-05-07T03:17:55;7.35;;;6.60;;
38379;SDS011;38377;47.418;18.882;2023-05-07T03:20:21;9.40;;;7.35;;
38379;SDS011;38377;47.418;18.882;2023-05-07T03:22:47;8.82;;;7.53;;
38379;SDS011;38377;47.418;18.882;2023-05-07T03:25:13;11.00;;;7.80;;
38379;SDS011;38377;47.418;18.882;2023-05-07T03:27:39;8.27;;;7.20;;
38379;SDS011;38377;47.418;18.882;2023-05-07T03:30:07;9.05;;;7.50;;
38379;SDS011;38377;47.418;18.882;2023-05-07T03:32:33;9.40;;;7.68;;
38379;SDS011;38377;47.418;18.882;2023-05-07T03:35:00;10.30;;;7.57;;
38379;SDS011;38377;47.418;18.882;2023-05-07T03:37:26;8.63;;;7.00;;
38379;SDS011;38377;47.418;18.882;2023-05-07T03:39:51;8.57;;;7.47;;
38379;SDS011;38377;47.418;18.882;2023-05-07T03:42:17;9.65;;;7.47;;
38379;SDS011;38377;47.418;18.882;2023-05-07T03:44:43;9.10;;;7.00;;
38379;SDS011;38377;47.418;18.882;2023-05-07T03:47:08;10.02;;;6.65;;
38379;SDS011;38377;47.418;18.882;2023-05-07T03:49:35;8.15;;;6.70;;
38379;SDS011;38377;47.418;18.882;2023-05-07T03:52:01;8.15;;;7.22;;
38379;SDS011;38377;47.418;18.882;2023-05-07T03:54:27;7.07;;;6.38;;
38379;SDS011;38377;47.418;18.882;2023-05-07T03:56:53;7.90;;;7.10;;
38379;SDS011;38377;47.418;18.882;2023-05-07T03:59:18;8.20;;;6.65;;
38379;SDS011;38377;47.418;18.882;2023-05-07T04:01:44;8.50;;;7.60;;
38379;SDS011;38377;47.418;18.882;2023-05-07T04:04:14;7.97;;;6.90;;
38379;SDS011;38377;47.418;18.882;2023-05-07T04:06:40;7.95;;;6.93;;
38379;SDS011;38377;47.418;18.882;2023-05-07T04:09:06;8.80;;;6.85;;
38379;SDS011;38377;47.418;18.882;2023-05-07T04:11:32;7.68;;;6.93;;
38379;SDS011;38377;47.418;18.882;2023-05-07T04:13:58;6.93;;;6.22;;
38379;SDS011;38377;47.418;18.882;2023-05-07T04:16:23;7.85;;;7.05;;
38379;SDS011;38377;47.418;18.882;2023-05-07T04:18:49;7.50;;;6.68;;
38379;SDS011;38377;47.418;18.882;2023-05-07T04:21:19;8.77;;;6.80;;
38379;SDS011;38377;47.418;18.882;2023-05-07T04:23:48;10.33;;;7.03;;
38379;SDS011;38377;47.418;18.882;2023-05-07T04:26:14;9.43;;;7.25;;
38379;SDS011;38377;47.418;18.882;2023-05-07T04:28:41;7.78;;;6.70;;
38379;SDS011;38377;47.418;18.882;2023-05-07T04:31:07;7.95;;;6.47;;
38379;SDS011;38377;47.418;18.882;2023-05-07T04:33:32;6.63;;;5.90;;
38379;SDS011;38377;47.418;18.882;2023-05-07T04:36:01;7.15;;;6.35;;
38379;SDS011;38377;47.418;18.882;2023-05-07T04:38:28;6.68;;;5.95;;
38379;SDS011;38377;47.418;18.882;2023-05-07T04:40:58;5.60;;;4.82;;
38379;SDS011;38377;47.418;18.882;2023-05-07T04:43:33;6.53;;;5.65;;
38379;SDS011;38377;47.418;18.882;2023-05-07T04:45:59;5.25;;;4.53;;
38379;SDS011;38377;47.418;18.882;2023-05-07T04:48:25;5.25;;;4.65;;
38379;SDS011;38377;47.418;18.882;2023-05-07T04:50:51;5.13;;;4.63;;
38379;SDS011;38377;47.418;18.882;2023-05-07T04:53:17;6.32;;;4.47;;
38379;SDS011;38377;47.418;18.882;2023-05-07T04:55:44;4.97;;;4.32;;
38379;SDS011;38377;47.418;18.882;2023-05-07T04:58:12;5.78;;;5.25;;
38379;SDS011;38377;47.418;18.882;2023-05-07T05:00:38;5.07;;;4.57;;
38379;SDS011;38377;47.418;18.882;2023-05-07T05:03:04;6.97;;;4.93;;
38379;SDS011;38377;47.418;18.882;2023-05-07T05:05:32;4.65;;;3.95;;
38379;SDS011;38377;47.418;18.882;2023-05-07T05:07:57;5.13;;;4.63;;
38379;SDS011;38377;47.418;18.882;2023-05-07T05:10:23;4.75;;;4.32;;
38379;SDS011;38377;47.418;18.882;2023-05-07T05:12:49;5.15;;;4.65;;
38379;SDS011;38377;47.418;18.882;2023-05-07T05:15:15;5.80;;;4.80;;
38379;SDS011;38377;47.418;18.882;2023-05-07T05:17:41;5.15;;;4.68;;
38379;SDS011;38377;47.418;18.882;2023-05-07T05:20:07;6.03;;;5.28;;
38379;SDS011;38377;47.418;18.882;2023-05-07T05:22:34;6.22;;;5.63;;
38379;SDS011;38377;47.418;18.882;2023-05-07T05:25:00;5.95;;;5.35;;
38379;SDS011;38377;47.418;18.882;2023-05-07T05:27:26;6.65;;;4.72;;
38379;SDS011;38377;47.418;18.882;2023-05-07T05:29:51;6.00;;;5.40;;
38379;SDS011;38377;47.418;18.882;2023-05-07T05:32:17;7.65;;;5.13;;
38379;SDS011;38377;47.418;18.882;2023-05-07T05:34:46;5.47;;;4.82;;
38379;SDS011;38377;47.418;18.882;2023-05-07T05:37:11;6.10;;;4.95;;
38379;SDS011;38377;47.418;18.882;2023-05-07T05:39:37;5.10;;;4.60;;
38379;SDS011;38377;47.418;18.882;2023-05-07T05:42:03;6.57;;;4.55;;
38379;SDS011;38377;47.418;18.882;2023-05-07T05:44:28;6.28;;;4.20;;
38379;SDS011;38377;47.418;18.882;2023-05-07T05:46:54;5.63;;;4.63;;
38379;SDS011;38377;47.418;18.882;2023-05-07T05:49:22;5.07;;;4.38;;
38379;SDS011;38377;47.418;18.882;2023-05-07T05:51:48;4.70;;;4.18;;
38379;SDS011;38377;47.418;18.882;2023-05-07T05:54:13;6.43;;;5.38;;
38379;SDS011;38377;47.418;18.882;2023-05-07T05:56:40;7.70;;;6.00;;
38379;SDS011;38377;47.418;18.882;2023-05-07T05:59:06;6.88;;;5.90;;
38379;SDS011;38377;47.418;18.882;2023-05-07T06:01:32;6.88;;;6.18;;
38379;SDS011;38377;47.418;18.882;2023-05-07T06:03:58;7.43;;;6.05;;
38379;SDS011;38377;47.418;18.882;2023-05-07T06:06:23;6.03;;;5.43;;
38379;SDS011;38377;47.418;18.882;2023-05-07T06:08:50;6.65;;;5.95;;
38379;SDS011;38377;47.418;18.882;2023-05-07T06:11:16;5.82;;;5.22;;
38379;SDS011;38377;47.418;18.882;2023-05-07T06:13:41;5.50;;;4.70;;
38379;SDS011;38377;47.418;18.882;2023-05-07T06:16:07;5.50;;;4.72;;
38379;SDS011;38377;47.418;18.882;2023-05-07T06:18:33;5.85;;;4.43;;
38379;SDS011;38377;47.418;18.882;2023-05-07T06:21:01;4.18;;;3.70;;
38379;SDS011;38377;47.418;18.882;2023-05-07T06:23:26;3.80;;;3.40;;
38379;SDS011;38377;47.418;18.882;2023-05-07T06:25:52;3.38;;;3.08;;
38379;SDS011;38377;47.418;18.882;2023-05-07T06:28:18;3.40;;;2.90;;
38379;SDS011;38377;47.418;18.882;2023-05-07T06:30:44;5.75;;;3.50;;
38379;SDS011;38377;47.418;18.882;2023-05-07T06:33:10;5.85;;;3.50;;
38379;SDS011;38377;47.418;18.882;2023-05-07T06:35:36;3.65;;;3.15;;
38379;SDS011;38377;47.418;18.882;2023-05-07T06:38:02;3.33;;;3.03;;
38379;SDS011;38377;47.418;18.882;2023-05-07T06:40:27;3.95;;;3.22;;
38379;SDS011;38377;47.418;18.882;2023-05-07T06:42:53;3.13;;;2.85;;
38379;SDS011;38377;47.418;18.882;2023-05-07T06:45:19;3.20;;;2.80;;
38379;SDS011;38377;47.418;18.882;2023-05-07T06:47:45;3.35;;;3.05;;
38379;SDS011;38377;47.418;18.882;2023-05-07T06:50:11;3.35;;;2.75;;
38379;SDS011;38377;47.418;18.882;2023-05-07T06:52:37;3.63;;;3.17;;
38379;SDS011;38377;47.418;18.882;2023-05-07T06:55:02;4.55;;;3.42;;
38379;SDS011;38377;47.418;18.882;2023-05-07T06:57:28;3.55;;;3.15;;
38379;SDS011;38377;47.418;18.882;2023-05-07T06:59:54;4.10;;;3.47;;
38379;SDS011;38377;47.418;18.882;2023-05-07T07:02:20;3.30;;;3.00;;
38379;SDS011;38377;47.418;18.882;2023-05-07T07:04:45;3.45;;;3.15;;
38379;SDS011;38377;47.418;18.882;2023-05-07T07:07:11;3.50;;;3.05;;
38379;SDS011;38377;47.418;18.882;2023-05-07T07:09:37;4.82;;;2.75;;
38379;SDS011;38377;47.418;18.882;2023-05-07T07:12:03;3.58;;;2.70;;
38379;SDS011;38377;47.418;18.882;2023-05-07T07:14:29;4.10;;;3.33;;
38379;SDS011;38377;47.418;18.882;2023-05-07T07:16:55;3.25;;;2.95;;
38379;SDS011;38377;47.418;18.882;2023-05-07T07:19:21;3.90;;;2.67;;
38379;SDS011;38377;47.418;18.882;2023-05-07T07:21:47;4.00;;;3.55;;
38379;SDS011;38377;47.418;18.882;2023-05-07T07:24:13;8.95;;;5.18;;
38379;SDS011;38377;47.418;18.882;2023-05-07T07:26:44;7.18;;;6.47;;
38379;SDS011;38377;47.418;18.882;2023-05-07T07:29:09;8.57;;;7.70;;
38379;SDS011;38377;47.418;18.882;2023-05-07T07:31:35;9.50;;;8.55;;
38379;SDS011;38377;47.418;18.882;2023-05-07T07:34:01;9.90;;;8.82;;
38379;SDS011;38377;47.418;18.882;2023-05-07T07:36:26;10.63;;;9.52;;
38379;SDS011;38377;47.418;18.882;2023-05-07T07:38:53;11.10;;;9.32;;
38379;SDS011;38377;47.418;18.882;2023-05-07T07:41:18;10.13;;;9.10;;
38379;SDS011;38377;47.418;18.882;2023-05-07T07:43:44;9.88;;;8.82;;
38379;SDS011;38377;47.418;18.882;2023-05-07T07:46:11;10.73;;;9.45;;
38379;SDS011;38377;47.418;18.882;2023-05-07T07:48:37;10.57;;;9.50;;
38379;SDS011;38377;47.418;18.882;2023-05-07T07:51:03;14.30;;;10.60;;
38379;SDS011;38377;47.418;18.882;2023-05-07T07:53:29;10.88;;;9.73;;
38379;SDS011;38377;47.418;18.882;2023-05-07T07:55:55;11.52;;;10.05;;
38379;SDS011;38377;47.418;18.882;2023-05-07T07:58:21;11.20;;;9.88;;
38379;SDS011;38377;47.418;18.882;2023-05-07T08:00:47;12.85;;;9.50;;
38379;SDS011;38377;47.418;18.882;2023-05-07T08:03:13;10.10;;;8.80;;
38379;SDS011;38377;47.418;18.882;2023-05-07T08:05:41;10.07;;;8.25;;
38379;SDS011;38377;47.418;18.882;2023-05-07T08:08:07;9.00;;;8.10;;
38379;SDS011;38377;47.418;18.882;2023-05-07T08:10:33;11.25;;;7.80;;
38379;SDS011;38377;47.418;18.882;2023-05-07T08:13:00;8.02;;;7.15;;
38379;SDS011;38377;47.418;18.882;2023-05-07T08:15:26;10.15;;;8.48;;
38379;SDS011;38377;47.418;18.882;2023-05-07T08:17:52;8.88;;;7.97;;
38379;SDS011;38377;47.418;18.882;2023-05-07T08:20:18;9.05;;;7.72;;
38379;SDS011;38377;47.418;18.882;2023-05-07T08:22:44;7.85;;;6.95;;
38379;SDS011;38377;47.418;18.882;2023-05-07T08:25:10;9.90;;;8.05;;
38379;SDS011;38377;47.418;18.882;2023-05-07T08:27:36;9.15;;;8.15;;
38379;SDS011;38377;47.418;18.882;2023-05-07T08:30:02;8.95;;;7.50;;
38379;SDS011;38377;47.418;18.882;2023-05-07T08:32:28;9.15;;;7.53;;
38379;SDS011;38377;47.418;18.882;2023-05-07T08:34:54;7.93;;;7.15;;
38379;SDS011;38377;47.418;18.882;2023-05-07T08:37:20;8.10;;;7.25;;
38379;SDS011;38377;47.418;18.882;2023-05-07T08:39:45;8.40;;;7.57;;
38379;SDS011;38377;47.418;18.882;2023-05-07T08:42:11;8.10;;;7.28;;
38379;SDS011;38377;47.418;18.882;2023-05-07T08:44:40;7.97;;;7.18;;
38379;SDS011;38377;47.418;18.882;2023-05-07T08:47:10;10.20;;;7.90;;
38379;SDS011;38377;47.418;18.882;2023-05-07T08:49:36;9.10;;;8.20;;
38379;SDS011;38377;47.418;18.882;2023-05-07T08:52:02;8.13;;;7.03;;
38379;SDS011;38377;47.418;18.882;2023-05-07T08:54:28;7.20;;;6.45;;
38379;SDS011;38377;47.418;18.882;2023-05-07T08:56:54;7.88;;;6.65;;
38379;SDS011;38377;47.418;18.882;2023-05-07T08:59:20;7.53;;;6.50;;
38379;SDS011;38377;47.418;18.882;2023-05-07T09:01:46;6.65;;;6.03;;
38379;SDS011;38377;47.418;18.882;2023-05-07T09:04:11;7.10;;;6.03;;
38379;SDS011;38377;47.418;18.882;2023-05-07T09:06:38;6.78;;;5.70;;
38379;SDS011;38377;47.418;18.882;2023-05-07T09:09:06;6.10;;;5.50;;
38379;SDS011;38377;47.418;18.882;2023-05-07T09:11:32;6.07;;;5.38;;
38379;SDS011;38377;47.418;18.882;2023-05-07T09:13:58;4.53;;;4.13;;
38379;SDS011;38377;47.418;18.882;2023-05-07T09:16:28;5.20;;;4.40;;
38379;SDS011;38377;47.418;18.882;2023-05-07T09:18:57;6.60;;;5.25;;
38379;SDS011;38377;47.418;18.882;2023-05-07T09:21:25;6.38;;;5.78;;
38379;SDS011;38377;47.418;18.882;2023-05-07T09:23:54;6.72;;;6.10;;
38379;SDS011;38377;47.418;18.882;2023-05-07T09:26:21;7.45;;;6.68;;
38379;SDS011;38377;47.418;18.882;2023-05-07T09:28:47;7.72;;;6.82;;
38379;SDS011;38377;47.418;18.882;2023-05-07T09:31:13;8.25;;;6.47;;
38379;SDS011;38377;47.418;18.882;2023-05-07T09:33:39;5.72;;;5.13;;
38379;SDS011;38377;47.418;18.882;2023-05-07T09:36:05;5.57;;;4.68;;
38379;SDS011;38377;47.418;18.882;2023-05-07T09:38:32;5.88;;;5.28;;
38379;SDS011;38377;47.418;18.882;2023-05-07T09:41:02;7.82;;;5.97;;
38379;SDS011;38377;47.418;18.882;2023-05-07T09:43:31;5.10;;;4.57;;
38379;SDS011;38377;47.418;18.882;2023-05-07T09:46:01;6.05;;;4.93;;
38379;SDS011;38377;47.418;18.882;2023-05-07T09:48:38;7.30;;;6.60;;
38379;SDS011;38377;47.418;18.882;2023-05-07T09:51:29;7.68;;;6.05;;
38379;SDS011;38377;47.418;18.882;2023-05-07T09:53:56;7.90;;;7.03;;
38379;SDS011;38377;47.418;18.882;2023-05-07T09:56:25;8.63;;;6.93;;
38379;SDS011;38377;47.418;18.882;2023-05-07T09:58:52;8.07;;;7.18;;
38379;SDS011;38377;47.418;18.882;2023-05-07T10:01:19;9.70;;;7.03;;
38379;SDS011;38377;47.418;18.882;2023-05-07T10:03:47;8.95;;;7.07;;
38379;SDS011;38377;47.418;18.882;2023-05-07T10:06:15;8.65;;;7.75;;
38379;SDS011;38377;47.418;18.882;2023-05-07T10:08:42;10.98;;;6.75;;
38379;SDS011;38377;47.418;18.882;2023-05-07T10:11:08;8.80;;;7.90;;
38379;SDS011;38377;47.418;18.882;2023-05-07T10:13:35;12.35;;;9.50;;
38379;SDS011;38377;47.418;18.882;2023-05-07T10:16:05;11.63;;;9.77;;
38379;SDS011;38377;47.418;18.882;2023-05-07T10:18:31;9.23;;;8.30;;
38379;SDS011;38377;47.418;18.882;2023-05-07T10:23:50;8.10;;;7.30;;
38379;SDS011;38377;47.418;18.882;2023-05-07T10:26:21;7.65;;;6.95;;
38379;SDS011;38377;47.418;18.882;2023-05-07T10:28:49;7.93;;;7.22;;
38379;SDS011;38377;47.418;18.882;2023-05-07T10:34:16;6.20;;;5.32;;
38379;SDS011;38377;47.418;18.882;2023-05-07T10:36:46;5.85;;;5.07;;
38379;SDS011;38377;47.418;18.882;2023-05-07T10:39:13;5.78;;;5.18;;
38379;SDS011;38377;47.418;18.882;2023-05-07T10:41:39;10.07;;;6.05;;
38379;SDS011;38377;47.418;18.882;2023-05-07T10:44:05;5.00;;;4.57;;
38379;SDS011;38377;47.418;18.882;2023-05-07T10:46:31;5.53;;;5.00;;
38379;SDS011;38377;47.418;18.882;2023-05-07T10:51:26;8.65;;;5.75;;
38379;SDS011;38377;47.418;18.882;2023-05-07T10:56:37;7.25;;;6.60;;
38379;SDS011;38377;47.418;18.882;2023-05-07T10:59:45;10.25;;;7.22;;
38379;SDS011;38377;47.418;18.882;2023-05-07T11:01:59;6.63;;;6.03;;
38379;SDS011;38377;47.418;18.882;2023-05-07T11:04:31;7.75;;;6.95;;
38379;SDS011;38377;47.418;18.882;2023-05-07T11:10:04;7.30;;;5.68;;
38379;SDS011;38377;47.418;18.882;2023-05-07T11:15:10;4.90;;;4.30;;
38379;SDS011;38377;47.418;18.882;2023-05-07T11:20:19;5.43;;;4.47;;
38379;SDS011;38377;47.418;18.882;2023-05-07T11:22:46;4.95;;;4.55;;
38379;SDS011;38377;47.418;18.882;2023-05-07T11:25:17;4.88;;;3.95;;
38379;SDS011;38377;47.418;18.882;2023-05-07T11:27:46;3.65;;;3.30;;
38379;SDS011;38377;47.418;18.882;2023-05-07T11:30:18;3.50;;;3.20;;
38379;SDS011;38377;47.418;18.882;2023-05-07T11:32:44;6.53;;;2.92;;
38379;SDS011;38377;47.418;18.882;2023-05-07T11:35:12;3.15;;;2.85;;
38379;SDS011;38377;47.418;18.882;2023-05-07T11:37:40;2.92;;;2.72;;
38379;SDS011;38377;47.418;18.882;2023-05-07T11:40:07;4.95;;;3.20;;
38379;SDS011;38377;47.418;18.882;2023-05-07T11:42:36;3.33;;;2.65;;
38379;SDS011;38377;47.418;18.882;2023-05-07T11:45:03;3.03;;;2.72;;
38379;SDS011;38377;47.418;18.882;2023-05-07T11:47:31;3.35;;;3.00;;
38379;SDS011;38377;47.418;18.882;2023-05-07T11:49:57;3.50;;;3.17;;
38379;SDS011;38377;47.418;18.882;2023-05-07T11:52:31;3.58;;;3.17;;
38379;SDS011;38377;47.418;18.882;2023-05-07T11:54:58;4.43;;;3.63;;
38379;SDS011;38377;47.418;18.882;2023-05-07T11:57:25;3.38;;;3.08;;
38379;SDS011;38377;47.418;18.882;2023-05-07T11:59:55;7.05;;;3.28;;
38379;SDS011;38377;47.418;18.882;2023-05-07T12:02:24;3.03;;;2.72;;
38379;SDS011;38377;47.418;18.882;2023-05-07T12:04:50;3.92;;;2.72;;
38379;SDS011;38377;47.418;18.882;2023-05-07T12:07:17;3.05;;;2.72;;
38379;SDS011;38377;47.418;18.882;2023-05-07T12:09:43;2.60;;;2.40;;
38379;SDS011;38377;47.418;18.882;2023-05-07T12:12:10;4.05;;;2.47;;
38379;SDS011;38377;47.418;18.882;2023-05-07T12:14:43;3.40;;;3.10;;
38379;SDS011;38377;47.418;18.882;2023-05-07T12:17:09;3.88;;;3.33;;
38379;SDS011;38377;47.418;18.882;2023-05-07T12:19:37;4.38;;;3.42;;
38379;SDS011;38377;47.418;18.882;2023-05-07T12:22:04;3.15;;;2.83;;
38379;SDS011;38377;47.418;18.882;2023-05-07T12:27:28;3.05;;;2.67;;
38379;SDS011;38377;47.418;18.882;2023-05-07T12:29:53;3.00;;;2.70;;
38379;SDS011;38377;47.418;18.882;2023-05-07T12:32:20;4.57;;;3.90;;
38379;SDS011;38377;47.418;18.882;2023-05-07T12:34:49;4.47;;;3.25;;
38379;SDS011;38377;47.418;18.882;2023-05-07T12:37:15;3.97;;;3.60;;
38379;SDS011;38377;47.418;18.882;2023-05-07T12:39:48;5.25;;;3.85;;
38379;SDS011;38377;47.418;18.882;2023-05-07T12:42:19;5.50;;;3.30;;
38379;SDS011;38377;47.418;18.882;2023-05-07T12:44:50;3.88;;;3.45;;
38379;SDS011;38377;47.418;18.882;2023-05-07T12:47:17;3.95;;;3.22;;
38379;SDS011;38377;47.418;18.882;2023-05-07T12:49:43;4.10;;;3.45;;
38379;SDS011;38377;47.418;18.882;2023-05-07T12:52:11;4.30;;;3.60;;
38379;SDS011;38377;47.418;18.882;2023-05-07T12:54:37;3.80;;;3.42;;
38379;SDS011;38377;47.418;18.882;2023-05-07T12:57:07;3.17;;;2.88;;
38379;SDS011;38377;47.418;18.882;2023-05-07T12:59:34;3.55;;;2.70;;
38379;SDS011;38377;47.418;18.882;2023-05-07T13:02:04;2.40;;;2.20;;
38379;SDS011;38377;47.418;18.882;2023-05-07T13:04:30;5.80;;;2.75;;
38379;SDS011;38377;47.418;18.882;2023-05-07T13:06:56;3.05;;;2.20;;
38379;SDS011;38377;47.418;18.882;2023-05-07T13:09:22;3.33;;;3.03;;
38379;SDS011;38377;47.418;18.882;2023-05-07T13:11:48;3.17;;;2.83;;
38379;SDS011;38377;47.418;18.882;2023-05-07T13:14:14;7.60;;;2.67;;
38379;SDS011;38377;47.418;18.882;2023-05-07T13:16:40;3.13;;;2.83;;
38379;SDS011;38377;47.418;18.882;2023-05-07T13:19:06;3.78;;;3.25;;
38379;SDS011;38377;47.418;18.882;2023-05-07T13:21:32;3.00;;;2.70;;
38379;SDS011;38377;47.418;18.882;2023-05-07T13:23:57;3.20;;;2.75;;
38379;SDS011;38377;47.418;18.882;2023-05-07T13:26:23;3.50;;;2.97;;
38379;SDS011;38377;47.418;18.882;2023-05-07T13:28:53;2.53;;;2.33;;
38379;SDS011;38377;47.418;18.882;2023-05-07T13:31:19;6.65;;;2.90;;
38379;SDS011;38377;47.418;18.882;2023-05-07T13:33:46;3.00;;;2.80;;
38379;SDS011;38377;47.418;18.882;2023-05-07T13:36:11;5.40;;;3.17;;
38379;SDS011;38377;47.418;18.882;2023-05-07T13:38:37;3.80;;;3.08;;
38379;SDS011;38377;47.418;18.882;2023-05-07T13:41:04;5.28;;;3.30;;
38379;SDS011;38377;47.418;18.882;2023-05-07T13:43:30;5.18;;;3.97;;
38379;SDS011;38377;47.418;18.882;2023-05-07T13:45:58;4.60;;;3.10;;
38379;SDS011;38377;47.418;18.882;2023-05-07T13:48:25;3.35;;;2.88;;
38379;SDS011;38377;47.418;18.882;2023-05-07T13:50:50;4.35;;;3.80;;
38379;SDS011;38377;47.418;18.882;2023-05-07T13:53:16;3.80;;;3.38;;
38379;SDS011;38377;47.418;18.882;2023-05-07T13:55:43;3.40;;;3.10;;
38379;SDS011;38377;47.418;18.882;2023-05-07T13:58:09;3.58;;;3.20;;
38379;SDS011;38377;47.418;18.882;2023-05-07T14:00:35;3.97;;;3.25;;
38379;SDS011;38377;47.418;18.882;2023-05-07T14:03:01;3.90;;;3.13;;
38379;SDS011;38377;47.418;18.882;2023-05-07T14:05:27;4.55;;;3.75;;
38379;SDS011;38377;47.418;18.882;2023-05-07T14:07:53;4.55;;;3.00;;
38379;SDS011;38377;47.418;18.882;2023-05-07T14:10:19;4.22;;;3.70;;
38379;SDS011;38377;47.418;18.882;2023-05-07T14:12:45;3.40;;;3.10;;
38379;SDS011;38377;47.418;18.882;2023-05-07T14:15:11;3.33;;;3.00;;
38379;SDS011;38377;47.418;18.882;2023-05-07T14:17:37;3.20;;;2.90;;
38379;SDS011;38377;47.418;18.882;2023-05-07T14:20:03;3.13;;;2.83;;
38379;SDS011;38377;47.418;18.882;2023-05-07T14:22:31;4.32;;;2.97;;
38379;SDS011;38377;47.418;18.882;2023-05-07T14:24:57;3.38;;;3.08;;
38379;SDS011;38377;47.418;18.882;2023-05-07T14:27:22;3.80;;;3.30;;
38379;SDS011;38377;47.418;18.882;2023-05-07T14:29:48;3.35;;;3.05;;
38379;SDS011;38377;47.418;18.882;2023-05-07T14:32:16;4.13;;;3.65;;
38379;SDS011;38377;47.418;18.882;2023-05-07T14:34:43;4.00;;;3.60;;
38379;SDS011;38377;47.418;18.882;2023-05-07T14:37:09;6.47;;;3.80;;
38379;SDS011;38377;47.418;18.882;2023-05-07T14:39:35;5.65;;;4.78;;
38379;SDS011;38377;47.418;18.882;2023-05-07T14:42:01;5.82;;;4.00;;
38379;SDS011;38377;47.418;18.882;2023-05-07T14:44:26;4.00;;;3.60;;
38379;SDS011;38377;47.418;18.882;2023-05-07T14:46:52;4.18;;;3.70;;
38379;SDS011;38377;47.418;18.882;2023-05-07T14:49:18;5.18;;;4.28;;